Time;durP1;ratioP1;P1;durP2;ratioP2;P2;SDS_P1;SDS_P2;PMS_P1;PMS_P2;Temp;Humidity;BMP_temperature;BMP_pressure;BME280_temperature;BME280_humidity;BME280_pressure;Samples;Min_cycle;Max_cycle;Signal;HPM_P1;HPM_P2
2021/11/22 00:00:23;;;;;;;6.55;5.88;;;;;;;;;;4992635;28;20189;-48
2021/11/22 00:02:50;;;;;;;15.38;7.40;;;;;;;;;;4992908;28;20674;-48
2021/11/22 00:05:16;;;;;;;15.60;6.95;;;;;;;;;;4992813;28;20175;-48
2021/11/22 00:07:42;;;;;;;11.20;6.80;;;;;;;;;;4992906;28;20165;-49
2021/11/22 00:10:08;;;;;;;12.93;5.80;;;;;;;;;;4992400;28;20200;-48
2021/11/22 00:12:36;;;;;;;8.25;5.25;;;;;;;;;;4992801;28;20471;-48
2021/11/22 00:15:03;;;;;;;6.18;5.53;;;;;;;;;;4992658;28;20220;-48
2021/11/22 00:17:30;;;;;;;10.10;4.82;;;;;;;;;;4992681;28;20580;-48
2021/11/22 00:19:57;;;;;;;8.15;4.82;;;;;;;;;;4992421;28;20192;-49
2021/11/22 00:22:23;;;;;;;14.68;5.93;;;;;;;;;;4992508;28;20189;-48
2021/11/22 00:24:49;;;;;;;9.50;5.90;;;;;;;;;;4992536;28;20583;-48
2021/11/22 00:27:15;;;;;;;15.10;5.10;;;;;;;;;;4992809;28;20404;-48
2021/11/22 00:29:41;;;;;;;15.10;5.00;;;;;;;;;;4992364;28;20649;-48
2021/11/22 00:32:08;;;;;;;9.65;4.90;;;;;;;;;;4992392;28;20437;-48
2021/11/22 00:34:41;;;;;;;7.50;5.40;;;;;;;;;;4992486;28;20215;-48
2021/11/22 00:37:12;;;;;;;11.40;5.32;;;;;;;;;;4992681;28;20646;-48
2021/11/22 00:39:38;;;;;;;10.55;5.65;;;;;;;;;;4992218;28;20212;-48
2021/11/22 00:42:07;;;;;;;10.45;5.32;;;;;;;;;;4991956;28;20165;-48
2021/11/22 00:44:33;;;;;;;8.20;4.60;;;;;;;;;;4992369;28;20696;-49
2021/11/22 00:46:59;;;;;;;9.03;6.10;;;;;;;;;;4992267;28;20165;-49
2021/11/22 00:49:25;;;;;;;9.30;4.90;;;;;;;;;;4992021;28;20494;-49
2021/11/22 00:51:50;;;;;;;19.48;4.80;;;;;;;;;;4992277;28;20904;-49
2021/11/22 00:54:16;;;;;;;7.37;5.57;;;;;;;;;;4992266;28;20196;-49
2021/11/22 00:56:42;;;;;;;5.80;5.30;;;;;;;;;;4992261;28;20407;-50
2021/11/22 00:59:10;;;;;;;7.67;5.23;;;;;;;;;;4991898;28;20872;-49
2021/11/22 01:01:36;;;;;;;7.43;5.80;;;;;;;;;;4992229;28;20446;-49
2021/11/22 01:04:02;;;;;;;13.27;7.10;;;;;;;;;;4991992;28;20163;-49
2021/11/22 01:06:28;;;;;;;11.20;5.95;;;;;;;;;;4992258;28;20224;-49
2021/11/22 01:08:54;;;;;;;15.13;7.17;;;;;;;;;;4991834;28;20594;-51
2021/11/22 01:11:56;;;;;;;12.00;5.67;;;;;;;;;;4991851;28;20483;-50
2021/11/22 01:14:22;;;;;;;12.82;7.35;;;;;;;;;;4992038;28;20407;-50
2021/11/22 01:16:48;;;;;;;13.23;7.00;;;;;;;;;;4992231;28;20181;-51
2021/11/22 01:19:14;;;;;;;13.63;8.20;;;;;;;;;;4991727;28;20201;-51
2021/11/22 01:21:40;;;;;;;10.40;7.20;;;;;;;;;;4992016;28;20453;-49
2021/11/22 01:24:06;;;;;;;13.90;9.10;;;;;;;;;;4992062;28;20979;-48
2021/11/22 01:26:32;;;;;;;17.00;8.40;;;;;;;;;;4991986;28;20248;-51
2021/11/22 01:28:58;;;;;;;13.40;8.70;;;;;;;;;;4991642;28;20424;-50
2021/11/22 01:31:24;;;;;;;15.23;8.83;;;;;;;;;;4992028;28;20756;-49
2021/11/22 01:33:51;;;;;;;17.63;9.90;;;;;;;;;;4991851;28;20400;-48
2021/11/22 01:36:17;;;;;;;16.88;9.10;;;;;;;;;;4991985;28;20177;-50
2021/11/22 01:38:43;;;;;;;12.90;9.32;;;;;;;;;;4991607;28;20208;-50
2021/11/22 01:41:09;;;;;;;14.53;10.23;;;;;;;;;;4991760;28;20173;-50
2021/11/22 01:43:35;;;;;;;11.83;9.63;;;;;;;;;;4991823;28;20408;-49
2021/11/22 01:46:01;;;;;;;14.67;10.07;;;;;;;;;;4991772;28;20396;-50
2021/11/22 01:48:27;;;;;;;19.33;11.57;;;;;;;;;;4991878;28;20405;-50
2021/11/22 01:50:53;;;;;;;21.35;10.48;;;;;;;;;;4991745;28;20203;-50
2021/11/22 01:53:20;;;;;;;16.58;10.95;;;;;;;;;;4991758;28;20539;-49
2021/11/22 01:55:47;;;;;;;18.95;9.68;;;;;;;;;;4994961;28;20169;-49
2021/11/22 01:58:13;;;;;;;14.57;9.48;;;;;;;;;;4995325;28;20581;-50
2021/11/22 02:00:42;;;;;;;18.70;10.67;;;;;;;;;;4994743;28;20185;-50
2021/11/22 02:03:08;;;;;;;16.48;10.48;;;;;;;;;;4994768;28;20496;-49
2021/11/22 02:05:34;;;;;;;15.27;10.40;;;;;;;;;;4993934;28;20177;-48
2021/11/22 02:08:01;;;;;;;14.43;9.95;;;;;;;;;;4977707;28;20224;-49
2021/11/22 02:10:27;;;;;;;17.88;10.40;;;;;;;;;;4977868;28;20232;-49
2021/11/22 02:12:53;;;;;;;16.50;9.70;;;;;;;;;;4977318;28;20235;-50
2021/11/22 02:15:22;;;;;;;16.50;10.80;;;;;;;;;;4994891;28;20252;-50
2021/11/22 02:17:50;;;;;;;20.17;12.05;;;;;;;;;;4994949;28;20172;-49
2021/11/22 02:20:17;;;;;;;18.30;11.88;;;;;;;;;;4995179;28;20193;-51
2021/11/22 02:22:45;;;;;;;18.08;11.60;;;;;;;;;;4994574;28;20189;-51
2021/11/22 02:25:12;;;;;;;18.80;12.40;;;;;;;;;;4994739;28;20184;-50
2021/11/22 02:27:38;;;;;;;23.20;12.60;;;;;;;;;;4994653;28;20621;-49
2021/11/22 02:30:06;;;;;;;24.08;12.90;;;;;;;;;;4994381;28;20185;-50
2021/11/22 02:32:32;;;;;;;25.08;13.02;;;;;;;;;;4994531;28;20642;-49
2021/11/22 02:34:58;;;;;;;21.70;11.80;;;;;;;;;;4994561;28;20177;-50
2021/11/22 02:37:24;;;;;;;19.42;12.70;;;;;;;;;;4994508;28;20415;-50
2021/11/22 02:39:50;;;;;;;22.65;13.60;;;;;;;;;;4994091;28;20211;-49
2021/11/22 02:42:26;;;;;;;26.20;12.70;;;;;;;;;;4994456;28;20259;-52
2021/11/22 02:44:53;;;;;;;23.23;13.25;;;;;;;;;;4994242;28;20518;-51
2021/11/22 02:47:19;;;;;;;19.13;12.77;;;;;;;;;;4994363;28;20165;-51
2021/11/22 02:49:45;;;;;;;21.98;13.07;;;;;;;;;;4993882;28;20192;-50
2021/11/22 02:52:12;;;;;;;20.02;13.07;;;;;;;;;;4994203;28;20173;-49
2021/11/22 02:54:38;;;;;;;18.48;12.57;;;;;;;;;;4994069;28;20171;-50
2021/11/22 02:57:04;;;;;;;18.90;12.85;;;;;;;;;;4994172;28;20180;-50
2021/11/22 02:59:30;;;;;;;18.35;12.30;;;;;;;;;;4993613;28;20196;-50
2021/11/22 03:01:56;;;;;;;27.57;12.03;;;;;;;;;;4994063;28;20174;-50
2021/11/22 03:04:32;;;;;;;20.75;12.63;;;;;;;;;;4993659;28;20408;-50
2021/11/22 03:06:58;;;;;;;19.98;13.27;;;;;;;;;;4993999;28;20211;-50
2021/11/22 03:09:24;;;;;;;20.58;12.20;;;;;;;;;;4993680;28;20216;-49
2021/11/22 03:11:51;;;;;;;22.87;11.43;;;;;;;;;;4993814;28;20548;-48
2021/11/22 03:14:17;;;;;;;20.20;12.60;;;;;;;;;;4993747;28;20455;-50
2021/11/22 03:16:42;;;;;;;16.40;12.00;;;;;;;;;;4993663;28;20176;-48
2021/11/22 03:19:08;;;;;;;16.70;11.40;;;;;;;;;;4993306;28;20207;-48
2021/11/22 03:21:34;;;;;;;22.87;12.00;;;;;;;;;;4993638;28;20435;-48
2021/11/22 03:24:00;;;;;;;18.17;11.60;;;;;;;;;;4993616;28;20483;-48
2021/11/22 03:26:26;;;;;;;22.80;12.07;;;;;;;;;;4993458;28;20919;-48
2021/11/22 03:28:52;;;;;;;16.07;11.00;;;;;;;;;;4993343;28;20791;-47
2021/11/22 03:31:18;;;;;;;14.63;10.70;;;;;;;;;;4993434;28;20416;-48
2021/11/22 03:33:46;;;;;;;18.45;11.13;;;;;;;;;;4993383;28;20401;-49
2021/11/22 03:36:13;;;;;;;15.32;10.38;;;;;;;;;;4993404;28;20605;-48
2021/11/22 03:38:39;;;;;;;15.48;10.93;;;;;;;;;;4992945;28;20292;-48
2021/11/22 03:41:11;;;;;;;17.73;10.63;;;;;;;;;;4993314;28;20173;-49
2021/11/22 03:44:01;;;;;;;21.38;10.82;;;;;;;;;;4993151;28;20188;-48
2021/11/22 03:46:25;;;;;;;12.65;8.98;;;;;;;;;;4992619;28;20185;-48
2021/11/22 03:48:51;;;;;;;18.53;11.10;;;;;;;;;;4992830;28;20192;-50
2021/11/22 03:51:17;;;;;;;15.95;10.02;;;;;;;;;;4993411;28;20794;-48
2021/11/22 03:53:44;;;;;;;13.35;9.60;;;;;;;;;;4992916;28;20180;-49
2021/11/22 03:56:10;;;;;;;11.82;8.48;;;;;;;;;;4993081;28;20651;-48
2021/11/22 03:58:36;;;;;;;13.27;10.50;;;;;;;;;;4992484;28;20247;-48
2021/11/22 04:01:03;;;;;;;11.65;8.75;;;;;;;;;;4992965;28;20193;-48
2021/11/22 04:03:29;;;;;;;16.30;9.80;;;;;;;;;;4992811;28;20197;-48
2021/11/22 04:05:55;;;;;;;11.67;8.63;;;;;;;;;;4993008;28;20816;-48
2021/11/22 04:08:21;;;;;;;13.10;8.80;;;;;;;;;;4992625;28;20447;-49
2021/11/22 04:10:47;;;;;;;13.15;10.27;;;;;;;;;;4992915;28;20491;-48
2021/11/22 04:13:13;;;;;;;12.00;8.63;;;;;;;;;;4992666;28;20212;-49
2021/11/22 04:15:39;;;;;;;12.18;7.65;;;;;;;;;;4992737;28;20775;-49
2021/11/22 04:18:06;;;;;;;11.73;9.82;;;;;;;;;;4992022;28;20660;-48
2021/11/22 04:20:32;;;;;;;12.98;9.02;;;;;;;;;;4992436;28;20662;-48
2021/11/22 04:22:58;;;;;;;14.55;9.35;;;;;;;;;;4992614;28;20196;-48
2021/11/22 04:25:24;;;;;;;11.43;8.77;;;;;;;;;;4992568;28;20169;-50
2021/11/22 04:27:51;;;;;;;11.75;9.13;;;;;;;;;;4992656;28;20169;-48
2021/11/22 04:30:18;;;;;;;13.55;9.57;;;;;;;;;;4992269;28;20192;-48
2021/11/22 04:32:45;;;;;;;18.00;9.23;;;;;;;;;;4992584;28;20169;-49
2021/11/22 04:35:12;;;;;;;7.65;6.78;;;;;;;;;;4992369;28;20261;-49
2021/11/22 04:37:40;;;;;;;8.80;7.80;;;;;;;;;;4992560;28;20184;-48
2021/11/22 04:40:07;;;;;;;9.35;7.68;;;;;;;;;;4992036;28;20200;-48
2021/11/22 04:42:33;;;;;;;12.75;8.10;;;;;;;;;;4992475;28;20176;-48
2021/11/22 04:44:59;;;;;;;13.52;8.50;;;;;;;;;;4992376;28;20633;-48
2021/11/22 04:47:26;;;;;;;9.40;7.47;;;;;;;;;;4992427;28;20176;-49
2021/11/22 04:49:53;;;;;;;14.43;8.70;;;;;;;;;;4992062;28;20448;-50
2021/11/22 04:52:19;;;;;;;10.77;8.48;;;;;;;;;;4992442;28;20405;-48
2021/11/22 04:54:46;;;;;;;9.27;8.02;;;;;;;;;;4992251;28;20177;-49
2021/11/22 04:57:13;;;;;;;10.63;8.77;;;;;;;;;;4992210;28;20173;-49
2021/11/22 04:59:40;;;;;;;13.15;10.02;;;;;;;;;;4992018;28;20712;-51
2021/11/22 05:02:07;;;;;;;14.63;9.48;;;;;;;;;;4992181;28;20192;-50
2021/11/22 05:04:33;;;;;;;11.80;8.45;;;;;;;;;;4992249;28;20191;-47
2021/11/22 05:06:59;;;;;;;10.53;9.00;;;;;;;;;;4992255;28;20229;-49
2021/11/22 05:09:25;;;;;;;13.10;9.73;;;;;;;;;;4991879;28;20435;-49
2021/11/22 05:11:51;;;;;;;13.80;9.35;;;;;;;;;;4992136;28;20396;-49
2021/11/22 05:14:18;;;;;;;13.55;9.77;;;;;;;;;;4992139;28;20184;-48
2021/11/22 05:16:45;;;;;;;12.18;8.82;;;;;;;;;;4992154;28;20177;-48
2021/11/22 05:19:12;;;;;;;14.75;8.45;;;;;;;;;;4991835;28;20575;-49
2021/11/22 05:21:38;;;;;;;10.75;8.85;;;;;;;;;;4991951;28;20181;-48
2021/11/22 05:24:05;;;;;;;11.40;8.85;;;;;;;;;;4992065;28;20173;-49
2021/11/22 05:26:31;;;;;;;11.52;9.27;;;;;;;;;;4991977;28;20170;-47
2021/11/22 05:29:01;;;;;;;11.35;9.18;;;;;;;;;;4994130;28;20189;-48
2021/11/22 05:31:28;;;;;;;14.38;9.00;;;;;;;;;;4995830;28;20181;-48
2021/11/22 05:33:54;;;;;;;12.02;9.07;;;;;;;;;;4995613;28;20177;-50
2021/11/22 05:36:20;;;;;;;10.60;8.20;;;;;;;;;;4995651;28;20172;-48
2021/11/22 05:38:47;;;;;;;15.95;10.50;;;;;;;;;;4995169;28;20459;-51
2021/11/22 05:41:13;;;;;;;14.93;9.98;;;;;;;;;;4995586;28;20176;-49
2021/11/22 05:43:41;;;;;;;11.50;9.55;;;;;;;;;;4995436;28;20169;-49
2021/11/22 05:46:08;;;;;;;14.32;10.55;;;;;;;;;;4995526;28;20222;-49
2021/11/22 05:48:35;;;;;;;17.35;11.98;;;;;;;;;;4995109;28;20180;-48
2021/11/22 05:51:01;;;;;;;14.93;11.13;;;;;;;;;;4995433;28;20169;-48
2021/11/22 05:53:33;;;;;;;16.08;11.68;;;;;;;;;;4995243;28;20164;-49
2021/11/22 05:56:00;;;;;;;21.52;13.07;;;;;;;;;;4995476;28;20176;-48
2021/11/22 05:58:26;;;;;;;18.50;14.07;;;;;;;;;;4994908;28;20217;-49
2021/11/22 06:00:52;;;;;;;18.55;13.07;;;;;;;;;;4995280;28;20174;-50
2021/11/22 06:03:18;;;;;;;25.43;13.67;;;;;;;;;;4995094;28;20195;-50
2021/11/22 06:05:44;;;;;;;18.90;13.87;;;;;;;;;;4995175;28;20412;-48
2021/11/22 06:08:10;;;;;;;18.77;14.23;;;;;;;;;;4995011;28;20436;-49
2021/11/22 06:10:36;;;;;;;17.05;11.98;;;;;;;;;;4994859;28;20193;-49
2021/11/22 06:13:02;;;;;;;14.88;11.52;;;;;;;;;;4995003;28;20636;-48
2021/11/22 06:15:28;;;;;;;19.13;12.27;;;;;;;;;;4994974;28;20255;-48
2021/11/22 06:17:54;;;;;;;23.35;14.43;;;;;;;;;;4994960;28;20173;-49
2021/11/22 06:20:20;;;;;;;20.15;13.80;;;;;;;;;;4994567;28;20664;-48
2021/11/22 06:22:46;;;;;;;17.60;12.67;;;;;;;;;;4994785;28;20211;-48
2021/11/22 06:25:12;;;;;;;86.40;41.40;;;;;;;;;;4994649;28;20412;-48
2021/11/22 06:27:38;;;;;;;20.95;13.65;;;;;;;;;;4994839;28;20192;-49
2021/11/22 06:30:06;;;;;;;16.88;12.95;;;;;;;;;;4994370;28;20665;-49
2021/11/22 06:32:32;;;;;;;22.60;13.05;;;;;;;;;;4994656;28;20181;-51
2021/11/22 06:34:59;;;;;;;17.77;12.55;;;;;;;;;;4994561;28;20188;-50
2021/11/22 06:37:26;;;;;;;18.65;13.75;;;;;;;;;;4994555;28;20255;-48
2021/11/22 06:39:53;;;;;;;23.42;16.15;;;;;;;;;;4993462;28;20204;-51
2021/11/22 06:42:20;;;;;;;20.33;14.63;;;;;;;;;;4994539;28;20700;-48
2021/11/22 06:44:48;;;;;;;27.77;16.10;;;;;;;;;;4994003;28;20173;-47
2021/11/22 06:47:14;;;;;;;22.15;16.27;;;;;;;;;;4994409;28;20184;-47
2021/11/22 06:49:40;;;;;;;22.48;15.35;;;;;;;;;;4994118;28;20528;-48
2021/11/22 06:52:07;;;;;;;26.00;16.30;;;;;;;;;;4994283;28;20664;-47
2021/11/22 06:54:33;;;;;;;20.55;15.52;;;;;;;;;;4994195;28;20177;-48
2021/11/22 06:56:59;;;;;;;20.10;14.52;;;;;;;;;;4994365;28;20181;-48
2021/11/22 06:59:27;;;;;;;20.73;14.70;;;;;;;;;;4993860;28;20255;-48
2021/11/22 07:01:53;;;;;;;27.08;14.73;;;;;;;;;;4994104;28;20157;-48
2021/11/22 07:04:19;;;;;;;20.35;14.15;;;;;;;;;;4994093;28;20254;-48
2021/11/22 07:06:45;;;;;;;19.23;14.80;;;;;;;;;;4994031;28;20207;-47
2021/11/22 07:09:11;;;;;;;21.10;14.70;;;;;;;;;;4993740;28;20432;-48
2021/11/22 07:11:38;;;;;;;26.23;15.83;;;;;;;;;;4993755;28;20408;-48
2021/11/22 07:14:06;;;;;;;20.02;14.25;;;;;;;;;;4993702;28;20440;-48
2021/11/22 07:16:32;;;;;;;20.58;14.70;;;;;;;;;;4991338;28;20608;-48
2021/11/22 07:18:58;;;;;;;21.08;14.43;;;;;;;;;;4993469;28;20212;-48
2021/11/22 07:21:24;;;;;;;20.92;14.32;;;;;;;;;;4993642;28;20683;-48
2021/11/22 07:23:51;;;;;;;24.73;16.02;;;;;;;;;;4993598;28;20176;-48
2021/11/22 07:26:17;;;;;;;24.73;16.23;;;;;;;;;;4993681;28;20253;-48
2021/11/22 07:28:43;;;;;;;22.60;15.48;;;;;;;;;;4993111;28;20207;-48
2021/11/22 07:31:09;;;;;;;20.83;14.50;;;;;;;;;;4994139;28;20169;-48
2021/11/22 07:33:35;;;;;;;22.88;14.23;;;;;;;;;;4992224;28;20458;-49
2021/11/22 07:36:01;;;;;;;22.50;15.20;;;;;;;;;;4993457;28;20299;-48
2021/11/22 07:38:27;;;;;;;19.70;14.03;;;;;;;;;;4992835;28;20951;-48
2021/11/22 07:40:53;;;;;;;26.37;13.70;;;;;;;;;;4993261;28;20436;-48
2021/11/22 07:43:19;;;;;;;21.00;14.52;;;;;;;;;;4993118;28;20401;-48
2021/11/22 07:45:48;;;;;;;17.88;14.23;;;;;;;;;;4993108;28;20169;-48
2021/11/22 07:48:14;;;;;;;20.77;14.95;;;;;;;;;;4993057;28;20173;-48
2021/11/22 07:50:40;;;;;;;21.80;14.70;;;;;;;;;;4992794;28;20669;-48
2021/11/22 07:53:06;;;;;;;20.10;13.93;;;;;;;;;;4992101;28;20914;-48
2021/11/22 07:55:32;;;;;;;23.33;15.20;;;;;;;;;;4992991;28;20191;-48
2021/11/22 07:57:58;;;;;;;22.17;15.13;;;;;;;;;;4992704;28;20407;-48
2021/11/22 08:00:25;;;;;;;20.27;15.95;;;;;;;;;;4992599;28;20201;-48
2021/11/22 08:02:52;;;;;;;26.83;18.73;;;;;;;;;;4992939;28;20219;-48
2021/11/22 08:05:18;;;;;;;21.60;15.35;;;;;;;;;;4992760;28;20171;-49
2021/11/22 08:07:45;;;;;;;22.33;15.02;;;;;;;;;;4992789;28;20208;-49
2021/11/22 08:12:48;;;;;;;20.73;14.93;;;;;;;;;;4992625;28;20180;-48
2021/11/22 08:15:15;;;;;;;25.85;17.45;;;;;;;;;;4992595;28;20169;-48
2021/11/22 08:17:43;;;;;;;19.60;14.90;;;;;;;;;;4992946;28;20599;-48
2021/11/22 08:20:10;;;;;;;22.58;15.60;;;;;;;;;;4992573;28;20554;-48
2021/11/22 08:22:36;;;;;;;23.38;16.58;;;;;;;;;;4992490;28;20216;-48
2021/11/22 08:25:03;;;;;;;24.83;15.95;;;;;;;;;;4992402;28;20183;-48
2021/11/22 08:27:29;;;;;;;25.17;16.55;;;;;;;;;;4992480;28;20176;-48
2021/11/22 08:29:56;;;;;;;27.50;17.35;;;;;;;;;;4992209;28;20283;-48
2021/11/22 08:32:22;;;;;;;22.60;17.52;;;;;;;;;;4992623;28;20679;-48
2021/11/22 08:34:48;;;;;;;26.23;16.55;;;;;;;;;;4992361;28;20182;-48
2021/11/22 08:37:14;;;;;;;22.77;17.63;;;;;;;;;;4975005;28;20172;-48
2021/11/22 08:39:41;;;;;;;22.15;16.17;;;;;;;;;;4991774;28;20467;-48
2021/11/22 08:42:07;;;;;;;30.58;16.55;;;;;;;;;;4992359;28;20176;-48
2021/11/22 08:44:34;;;;;;;28.88;16.60;;;;;;;;;;4992280;28;20164;-48
2021/11/22 08:47:00;;;;;;;27.65;16.73;;;;;;;;;;4992633;28;20177;-48
2021/11/22 08:49:26;;;;;;;27.08;18.05;;;;;;;;;;4992392;28;20185;-48
2021/11/22 08:51:53;;;;;;;21.90;14.73;;;;;;;;;;4992248;28;20201;-48
2021/11/22 08:54:19;;;;;;;19.98;15.27;;;;;;;;;;4992038;28;20172;-48
2021/11/22 08:56:45;;;;;;;22.58;15.60;;;;;;;;;;4989431;28;20185;-50
2021/11/22 08:59:11;;;;;;;19.50;13.70;;;;;;;;;;4987286;28;20255;-48
2021/11/22 09:01:39;;;;;;;22.85;13.68;;;;;;;;;;4991853;28;20462;-48
2021/11/22 09:04:05;;;;;;;24.63;14.90;;;;;;;;;;4994892;28;20161;-48
2021/11/22 09:06:35;;;;;;;22.40;13.30;;;;;;;;;;4996113;28;20187;-48
2021/11/22 09:09:03;;;;;;;20.90;13.43;;;;;;;;;;4995848;28;20920;-47
2021/11/22 09:11:29;;;;;;;15.63;12.95;;;;;;;;;;4996091;28;20264;-48
2021/11/22 09:13:55;;;;;;;18.80;13.00;;;;;;;;;;4996117;28;20176;-48
2021/11/22 09:16:27;;;;;;;14.10;11.63;;;;;;;;;;4996007;28;20412;-48
2021/11/22 09:18:53;;;;;;;15.40;11.47;;;;;;;;;;4995698;28;20459;-48
2021/11/22 09:21:21;;;;;;;11.40;10.30;;;;;;;;;;4995671;28;20424;-48
2021/11/22 09:23:47;;;;;;;11.80;10.23;;;;;;;;;;4995799;28;20408;-50
2021/11/22 09:26:14;;;;;;;16.30;11.37;;;;;;;;;;4995919;28;20412;-49
2021/11/22 09:28:40;;;;;;;11.60;10.17;;;;;;;;;;4995494;28;20496;-48
2021/11/22 09:31:06;;;;;;;20.00;10.57;;;;;;;;;;4995791;28;20501;-48
2021/11/22 09:33:33;;;;;;;16.10;10.93;;;;;;;;;;4995594;28;20409;-48
2021/11/22 09:35:58;;;;;;;12.40;9.15;;;;;;;;;;4995587;28;20451;-48
2021/11/22 09:38:25;;;;;;;12.10;9.73;;;;;;;;;;4995245;28;20613;-48
2021/11/22 09:40:51;;;;;;;11.30;10.13;;;;;;;;;;4995637;28;20488;-48
2021/11/22 09:43:17;;;;;;;11.63;10.40;;;;;;;;;;4990599;28;20527;-48
2021/11/22 09:45:43;;;;;;;17.10;10.40;;;;;;;;;;4993716;28;20424;-47
2021/11/22 09:48:09;;;;;;;12.00;10.23;;;;;;;;;;4994429;28;20412;-49
2021/11/22 09:50:35;;;;;;;13.70;10.70;;;;;;;;;;4994919;28;20420;-49
2021/11/22 09:53:02;;;;;;;13.60;9.97;;;;;;;;;;4995230;28;20412;-50
2021/11/22 09:55:31;;;;;;;12.87;9.90;;;;;;;;;;4995265;28;20429;-51
2021/11/22 09:57:58;;;;;;;13.17;9.77;;;;;;;;;;4995180;28;20397;-50
2021/11/22 10:00:24;;;;;;;10.67;9.60;;;;;;;;;;4994880;28;20966;-49
2021/11/22 10:02:52;;;;;;;11.67;10.10;;;;;;;;;;4995163;28;20410;-51
2021/11/22 10:05:33;;;;;;;11.67;9.63;;;;;;;;;;4994856;28;20399;-51
2021/11/22 10:08:01;;;;;;;10.63;8.10;;;;;;;;;;4994973;28;20408;-51
2021/11/22 10:10:31;;;;;;;10.93;8.97;;;;;;;;;;4993465;28;20913;-52
2021/11/22 10:13:03;;;;;;;7.63;6.93;;;;;;;;;;4994984;28;20551;-49
2021/11/22 10:15:32;;;;;;;6.23;5.60;;;;;;;;;;4993554;28;20418;-51
2021/11/22 10:17:58;;;;;;;6.57;5.97;;;;;;;;;;4992993;28;20532;-48
2021/11/22 10:20:24;;;;;;;7.03;6.47;;;;;;;;;;4993831;28;21029;-49
2021/11/22 10:23:00;;;;;;;5.87;5.47;;;;;;;;;;4994697;28;20430;-49
2021/11/22 10:25:30;;;;;;;7.10;6.10;;;;;;;;;;4994830;28;20402;-50
2021/11/22 10:28:00;;;;;;;8.17;7.37;;;;;;;;;;4994636;28;20400;-49
2021/11/22 10:30:29;;;;;;;12.40;8.37;;;;;;;;;;4994493;28;20399;-50
2021/11/22 10:32:57;;;;;;;9.20;8.40;;;;;;;;;;4994442;28;20904;-48
2021/11/22 10:35:23;;;;;;;10.23;9.20;;;;;;;;;;4994517;28;20399;-48
2021/11/22 10:38:14;;;;;;;13.70;10.50;;;;;;;;;;4994386;28;20492;-48
2021/11/22 10:40:42;;;;;;;11.20;10.00;;;;;;;;;;4984822;28;20521;-50
2021/11/22 10:43:08;;;;;;;12.07;10.33;;;;;;;;;;4994283;28;20825;-48
2021/11/22 10:45:52;;;;;;;11.93;10.63;;;;;;;;;;4994413;28;20888;-48
2021/11/22 10:48:20;;;;;;;12.53;11.07;;;;;;;;;;4994061;28;20751;-48
2021/11/22 10:50:50;;;;;;;12.10;10.83;;;;;;;;;;4994198;28;20400;-48
2021/11/22 10:53:24;;;;;;;10.63;9.40;;;;;;;;;;4993896;28;20485;-49
2021/11/22 10:55:50;;;;;;;12.70;8.13;;;;;;;;;;4994381;28;20768;-48
2021/11/22 10:58:35;;;;;;;8.77;7.90;;;;;;;;;;4993877;28;20449;-49
2021/11/22 11:01:21;;;;;;;13.73;8.40;;;;;;;;;;4994192;28;20391;-49
2021/11/22 11:03:55;;;;;;;7.83;7.03;;;;;;;;;;4993798;28;20396;-49
2021/11/22 11:06:33;;;;;;;8.87;8.07;;;;;;;;;;4994085;28;20395;-48
2021/11/22 11:09:00;;;;;;;8.90;8.10;;;;;;;;;;4993573;28;20417;-49
2021/11/22 11:11:26;;;;;;;7.63;7.00;;;;;;;;;;4994007;28;20402;-48
2021/11/22 11:13:53;;;;;;;8.03;6.57;;;;;;;;;;4993692;28;20377;-51
2021/11/22 11:16:20;;;;;;;7.80;7.10;;;;;;;;;;4993745;28;20408;-49
2021/11/22 11:19:00;;;;;;;7.43;6.50;;;;;;;;;;4993419;28;20431;-48
2021/11/22 11:21:30;;;;;;;6.20;5.53;;;;;;;;;;4993867;28;20426;-48
2021/11/22 11:23:57;;;;;;;7.37;6.40;;;;;;;;;;4993731;28;20392;-48
2021/11/22 11:26:27;;;;;;;6.60;6.07;;;;;;;;;;4993178;28;21145;-48
2021/11/22 11:28:54;;;;;;;6.23;5.60;;;;;;;;;;4993362;28;20427;-49
2021/11/22 11:31:20;;;;;;;5.80;5.30;;;;;;;;;;4993426;28;20474;-48
2021/11/22 11:33:47;;;;;;;6.90;6.17;;;;;;;;;;4993336;28;20520;-49
2021/11/22 11:36:25;;;;;;;9.40;7.60;;;;;;;;;;4993366;28;20437;-49
2021/11/22 11:38:51;;;;;;;6.40;5.90;;;;;;;;;;4992963;28;20483;-50
2021/11/22 11:41:32;;;;;;;9.60;7.40;;;;;;;;;;4993471;28;20462;-48
2021/11/22 11:44:24;;;;;;;7.80;6.63;;;;;;;;;;4993219;28;20369;-50
2021/11/22 11:46:53;;;;;;;9.60;6.00;;;;;;;;;;4993274;28;20385;-49
2021/11/22 11:49:30;;;;;;;6.13;5.60;;;;;;;;;;4992741;28;20422;-49
2021/11/22 11:51:56;;;;;;;5.37;4.87;;;;;;;;;;4993012;28;20432;-50
2021/11/22 11:54:26;;;;;;;6.83;4.30;;;;;;;;;;4992836;28;20895;-48
2021/11/22 11:56:57;;;;;;;5.53;4.00;;;;;;;;;;4993048;28;20421;-50
2021/11/22 11:59:26;;;;;;;4.43;3.83;;;;;;;;;;4992730;28;20527;-50
2021/11/22 12:01:54;;;;;;;4.83;4.43;;;;;;;;;;4992787;28;20971;-50
2021/11/22 12:04:21;;;;;;;4.73;4.07;;;;;;;;;;4992887;28;20376;-49
2021/11/22 12:06:51;;;;;;;8.57;7.67;;;;;;;;;;4992937;28;20410;-48
2021/11/22 12:09:35;;;;;;;4.50;3.77;;;;;;;;;;4992663;28;21117;-49
2021/11/22 12:12:20;;;;;;;6.17;4.77;;;;;;;;;;4990211;28;20390;-50
2021/11/22 12:15:04;;;;;;;4.40;3.63;;;;;;;;;;4992626;28;20854;-51
2021/11/22 12:17:39;;;;;;;4.47;4.07;;;;;;;;;;4992712;28;20473;-49
2021/11/22 12:20:05;;;;;;;4.50;4.10;;;;;;;;;;4992266;28;20569;-49
2021/11/22 12:22:35;;;;;;;4.17;3.77;;;;;;;;;;4988974;28;20518;-48
2021/11/22 12:25:01;;;;;;;4.40;4.07;;;;;;;;;;4988061;28;20412;-48
2021/11/22 12:27:27;;;;;;;4.93;4.33;;;;;;;;;;4992585;28;20408;-49
2021/11/22 12:29:54;;;;;;;3.93;3.63;;;;;;;;;;4992175;28;20844;-49
2021/11/22 12:32:27;;;;;;;4.20;3.67;;;;;;;;;;4982351;28;20415;-48
2021/11/22 12:34:57;;;;;;;7.90;3.80;;;;;;;;;;4985798;28;20831;-50
2021/11/22 12:37:28;;;;;;;5.07;4.63;;;;;;;;;;4982932;28;20442;-48
2021/11/22 12:39:54;;;;;;;4.63;4.23;;;;;;;;;;4981281;28;20463;-49
2021/11/22 12:42:24;;;;;;;4.23;3.83;;;;;;;;;;4981749;28;20972;-49
2021/11/22 12:45:06;;;;;;;4.80;4.40;;;;;;;;;;4981666;28;20407;-48
2021/11/22 12:47:33;;;;;;;8.10;4.57;;;;;;;;;;4972983;28;20483;-49
2021/11/22 12:50:17;;;;;;;4.67;4.20;;;;;;;;;;4976508;28;20433;-48
2021/11/22 12:53:03;;;;;;;4.47;4.07;;;;;;;;;;4978364;28;20411;-48
2021/11/22 12:55:34;;;;;;;4.47;3.90;;;;;;;;;;4990710;28;20409;-48
2021/11/22 12:58:08;;;;;;;4.63;3.97;;;;;;;;;;4990964;28;20537;-50
2021/11/22 13:00:37;;;;;;;4.60;4.03;;;;;;;;;;4990560;28;20884;-52
2021/11/22 13:03:08;;;;;;;4.43;4.03;;;;;;;;;;4990154;28;20919;-51
2021/11/22 13:05:47;;;;;;;4.30;4.00;;;;;;;;;;4990432;28;20392;-51
2021/11/22 13:08:19;;;;;;;3.80;3.50;;;;;;;;;;5007698;28;20632;-52
2021/11/22 13:10:49;;;;;;;6.83;4.10;;;;;;;;;;5010771;28;20473;-51
2021/11/22 13:13:30;;;;;;;3.80;3.50;;;;;;;;;;4994312;28;20460;-52
2021/11/22 13:15:59;;;;;;;4.67;4.03;;;;;;;;;;5012380;28;20393;-52
2021/11/22 13:18:29;;;;;;;4.20;3.80;;;;;;;;;;5011740;28;20550;-52
2021/11/22 13:20:55;;;;;;;5.00;4.60;;;;;;;;;;5011852;28;20435;-52
2021/11/22 13:23:22;;;;;;;5.20;4.10;;;;;;;;;;5011878;28;20460;-52
2021/11/22 13:25:48;;;;;;;6.10;4.27;;;;;;;;;;5012176;28;20415;-53
2021/11/22 13:28:16;;;;;;;4.73;4.30;;;;;;;;;;5012237;28;20382;-54
2021/11/22 13:30:43;;;;;;;4.47;4.07;;;;;;;;;;5012272;28;20960;-52
2021/11/22 13:33:10;;;;;;;4.43;4.07;;;;;;;;;;5012568;28;20472;-52
2021/11/22 13:35:36;;;;;;;4.20;3.80;;;;;;;;;;5012040;28;20406;-53
2021/11/22 13:38:16;;;;;;;5.03;4.00;;;;;;;;;;5012126;28;20399;-53
2021/11/22 13:40:43;;;;;;;8.97;4.10;;;;;;;;;;5011631;28;20787;-52
2021/11/22 13:43:10;;;;;;;4.40;4.00;;;;;;;;;;5011560;28;20445;-53
2021/11/22 13:45:37;;;;;;;6.93;4.67;;;;;;;;;;5011895;28;20948;-53
2021/11/22 13:48:04;;;;;;;7.30;4.10;;;;;;;;;;5011775;28;20395;-53
2021/11/22 13:50:43;;;;;;;4.63;4.30;;;;;;;;;;5014220;28;20425;-53
2021/11/22 13:53:09;;;;;;;5.57;3.90;;;;;;;;;;5015284;28;20957;-54
2021/11/22 13:55:35;;;;;;;6.33;3.63;;;;;;;;;;5015184;28;20743;-54
2021/11/22 13:58:15;;;;;;;3.80;3.40;;;;;;;;;;5015226;28;20390;-53
2021/11/22 14:00:58;;;;;;;5.23;4.10;;;;;;;;;;5015421;28;20431;-53
2021/11/22 14:03:28;;;;;;;3.70;3.37;;;;;;;;;;5015428;28;20394;-53
2021/11/22 14:05:55;;;;;;;5.53;4.10;;;;;;;;;;5014852;28;20449;-51
2021/11/22 14:08:21;;;;;;;6.03;3.67;;;;;;;;;;5014758;28;20806;-52
2021/11/22 14:10:47;;;;;;;6.30;5.27;;;;;;;;;;5014878;28;20409;-52
2021/11/22 14:13:15;;;;;;;12.30;8.13;;;;;;;;;;5014629;28;20795;-53
2021/11/22 14:15:41;;;;;;;4.80;3.80;;;;;;;;;;5014818;28;20397;-51
2021/11/22 14:18:15;;;;;;;4.37;3.97;;;;;;;;;;5014818;28;20402;-51
2021/11/22 14:21:00;;;;;;;4.00;3.70;;;;;;;;;;5005751;28;20478;-53
2021/11/22 14:23:27;;;;;;;4.40;4.00;;;;;;;;;;4994933;28;20404;-51
2021/11/22 14:26:00;;;;;;;8.73;3.93;;;;;;;;;;4995074;28;20393;-50
2021/11/22 14:28:26;;;;;;;3.63;3.33;;;;;;;;;;4995041;28;20408;-52
2021/11/22 14:30:52;;;;;;;4.40;3.83;;;;;;;;;;4995589;28;20427;-52
2021/11/22 14:33:21;;;;;;;5.50;3.30;;;;;;;;;;4995309;28;20408;-51
2021/11/22 14:36:01;;;;;;;4.97;4.00;;;;;;;;;;4995236;28;20456;-52